createdAt,value
2022-08-17T00:01:32.045Z,15.93
2022-08-17T00:04:19.392Z,15.10
2022-08-17T00:06:49.151Z,15.48
2022-08-17T00:09:18.473Z,15.38
2022-08-17T00:12:41.139Z,13.85
2022-08-17T00:14:35.613Z,15.63
2022-08-17T00:17:04.796Z,15.30
2022-08-17T00:19:33.024Z,16.23
2022-08-17T00:22:33.563Z,15.45
2022-08-17T00:27:17.367Z,17.88
2022-08-17T00:29:46.031Z,16.15
2022-08-17T00:33:15.480Z,17.85
2022-08-17T00:35:00.546Z,17.55
2022-08-17T00:37:27.880Z,15.35
2022-08-17T00:39:55.294Z,19.15
2022-08-17T00:42:22.365Z,17.63
2022-08-17T00:44:49.511Z,13.93
2022-08-17T00:47:16.391Z,15.50
2022-08-17T00:49:43.420Z,14.75
2022-08-17T00:52:15.724Z,15.68
2022-08-17T00:54:45.173Z,17.95
2022-08-17T00:57:18.007Z,17.67
2022-08-17T01:00:00.591Z,18.77
2022-08-17T01:02:34.321Z,16.95
2022-08-17T01:05:07.717Z,16.90
2022-08-17T01:07:34.919Z,15.57
2022-08-17T01:10:06.727Z,15.50
2022-08-17T01:12:35.206Z,16.27
2022-08-17T01:15:02.139Z,15.73
2022-08-17T01:17:29.085Z,17.42
2022-08-17T01:19:56.710Z,19.52
2022-08-17T01:22:24.566Z,17.05
2022-08-17T01:25:01.475Z,17.20
2022-08-17T01:27:28.895Z,17.02
2022-08-17T01:29:58.778Z,17.83
2022-08-17T01:32:27.489Z,16.20
2022-08-17T01:34:54.702Z,18.25
2022-08-17T01:37:28.173Z,18.98
2022-08-17T01:39:57.900Z,17.55
2022-08-17T01:42:46.566Z,17.95
2022-08-17T01:45:16.823Z,17.98
2022-08-17T01:47:43.903Z,19.27
2022-08-17T01:50:13.662Z,18.13
2022-08-17T01:52:41.126Z,19.80
2022-08-17T01:55:08.464Z,18.50
2022-08-17T01:57:35.467Z,17.35
2022-08-17T02:00:02.899Z,15.50
2022-08-17T02:02:31.010Z,20.02
2022-08-17T02:04:58.668Z,18.02
2022-08-17T02:07:26.157Z,20.23
2022-08-17T02:09:54.083Z,20.55
2022-08-17T02:12:37.879Z,17.05
2022-08-17T02:15:08.466Z,18.70
2022-08-17T02:17:35.758Z,16.60
2022-08-17T02:20:03.071Z,16.85
2022-08-17T02:22:30.217Z,17.55
2022-08-17T02:24:59.901Z,17.00
2022-08-17T02:27:28.806Z,14.63
2022-08-17T02:29:55.659Z,15.63
2022-08-17T02:32:25.389Z,16.17
2022-08-17T02:34:58.772Z,16.85
2022-08-17T02:37:26.263Z,16.48
2022-08-17T02:39:53.403Z,16.98
2022-08-17T02:42:25.541Z,18.98
2022-08-17T02:44:52.492Z,19.85
2022-08-17T02:47:19.373Z,19.60
2022-08-17T02:49:54.099Z,19.13
2022-08-17T02:52:43.409Z,19.45
2022-08-17T02:55:12.844Z,18.05
2022-08-17T02:57:39.837Z,18.33
2022-08-17T03:00:11.048Z,16.38
2022-08-17T03:05:05.804Z,17.98
2022-08-17T03:07:32.670Z,17.52
2022-08-17T03:09:59.641Z,17.00
2022-08-17T03:12:28.819Z,17.00
2022-08-17T03:14:55.760Z,19.88
2022-08-17T03:17:22.608Z,17.60
2022-08-17T03:19:49.695Z,17.20
2022-08-17T03:22:36.774Z,21.20
2022-08-17T03:25:03.807Z,19.55
2022-08-17T03:27:33.661Z,19.05
2022-08-17T03:30:00.526Z,17.08
2022-08-17T03:32:27.463Z,18.63
2022-08-17T03:34:58.192Z,19.15
2022-08-17T03:37:25.055Z,21.55
2022-08-17T03:39:51.994Z,19.63
2022-08-17T03:42:32.448Z,19.58
2022-08-17T03:45:00.560Z,21.25
2022-08-17T03:47:46.115Z,23.33
2022-08-17T03:50:32.089Z,22.45
2022-08-17T03:53:17.418Z,21.23
2022-08-17T03:56:02.956Z,26.80
2022-08-17T03:58:29.809Z,26.77
2022-08-17T04:00:56.771Z,30.40
2022-08-17T04:03:23.647Z,30.13
2022-08-17T04:05:50.502Z,29.30
2022-08-17T04:08:17.419Z,33.55
2022-08-17T04:10:44.921Z,34.78
2022-08-17T04:13:12.442Z,34.80
2022-08-17T04:15:39.643Z,35.17
2022-08-17T04:18:07.726Z,34.92
2022-08-17T04:20:38.070Z,35.78
2022-08-17T04:23:06.781Z,32.55
2022-08-17T04:25:35.256Z,31.88
2022-08-17T04:28:02.842Z,32.60
2022-08-17T04:30:32.182Z,35.60
2022-08-17T04:33:09.067Z,31.27
2022-08-17T04:35:37.683Z,36.60
2022-08-17T04:38:05.199Z,36.13
2022-08-17T04:40:51.330Z,33.13
2022-08-17T04:43:19.725Z,31.45
2022-08-17T04:45:54.984Z,32.30
2022-08-17T04:48:35.744Z,32.83
2022-08-17T04:51:09.881Z,33.47
2022-08-17T04:53:37.767Z,32.35
2022-08-17T04:56:04.825Z,30.38
2022-08-17T04:58:31.698Z,34.40
2022-08-17T05:00:58.764Z,36.58
2022-08-17T05:03:26.258Z,32.80
2022-08-17T05:05:53.816Z,33.05
2022-08-17T05:08:21.723Z,32.60
2022-08-17T05:10:49.189Z,33.92
2022-08-17T05:13:20.874Z,31.85
2022-08-17T05:15:49.084Z,33.50
2022-08-17T05:18:16.682Z,40.95
2022-08-17T05:20:43.890Z,35.35
2022-08-17T05:23:12.561Z,35.80
2022-08-17T05:25:40.902Z,34.78
2022-08-17T05:28:09.256Z,38.15
2022-08-17T05:30:37.270Z,35.80
2022-08-17T05:33:06.137Z,37.65
2022-08-17T05:35:34.545Z,39.97
2022-08-17T05:38:01.881Z,36.15
2022-08-17T05:40:32.862Z,34.72
2022-08-17T05:43:04.995Z,36.30
2022-08-17T05:45:54.603Z,34.13
2022-08-17T05:48:19.194Z,36.85
2022-08-17T05:50:52.424Z,38.03
2022-08-17T05:53:19.398Z,37.85
2022-08-17T05:56:00.044Z,37.45
2022-08-17T05:58:38.887Z,33.78
2022-08-17T06:01:09.245Z,38.40
2022-08-17T06:04:14.990Z,36.17
2022-08-17T06:06:44.927Z,33.88
2022-08-17T06:09:28.836Z,36.05
2022-08-17T06:12:01.464Z,34.28
2022-08-17T06:14:29.417Z,34.95
2022-08-17T06:17:00.589Z,35.58
2022-08-17T06:21:55.115Z,37.13
2022-08-17T06:24:45.211Z,34.78
2022-08-17T06:27:18.151Z,36.03
2022-08-17T06:29:56.801Z,35.10
2022-08-17T06:32:24.212Z,39.20
2022-08-17T06:34:51.733Z,35.92
2022-08-17T06:37:33.751Z,39.35
2022-08-17T06:40:19.957Z,36.72
2022-08-17T06:43:02.514Z,39.03
2022-08-17T06:45:41.939Z,38.45
2022-08-17T06:48:15.326Z,41.10
2022-08-17T06:50:48.548Z,40.30
2022-08-17T06:53:15.697Z,42.08
2022-08-17T06:55:46.732Z,41.00
2022-08-17T06:58:16.267Z,41.70
2022-08-17T07:00:46.258Z,42.88
2022-08-17T07:03:18.527Z,47.92
2022-08-17T07:05:51.998Z,44.33
2022-08-17T07:08:24.321Z,45.03
2022-08-17T07:10:55.675Z,44.75
2022-08-17T07:13:37.928Z,48.55
2022-08-17T07:16:08.650Z,47.17
2022-08-17T07:18:35.563Z,54.67
2022-08-17T07:21:11.076Z,51.78
2022-08-17T07:23:54.006Z,56.33
2022-08-17T07:26:23.478Z,52.72
2022-08-17T07:28:51.287Z,55.55
2022-08-17T07:31:18.188Z,55.05
2022-08-17T07:33:59.939Z,53.50
2022-08-17T07:36:30.027Z,56.50
2022-08-17T07:38:58.173Z,56.05
2022-08-17T07:41:25.166Z,61.08
2022-08-17T07:44:16.575Z,57.92
2022-08-17T07:47:09.850Z,63.97
2022-08-17T07:49:38.560Z,61.85
2022-08-17T07:52:50.439Z,60.13
2022-08-17T07:55:26.515Z,57.13
2022-08-17T07:57:57.514Z,60.33
2022-08-17T08:00:32.443Z,54.45
2022-08-17T08:03:02.301Z,56.58
2022-08-17T08:05:49.483Z,52.67
2022-08-17T08:08:29.556Z,51.05
2022-08-17T08:11:01.441Z,58.53
2022-08-17T08:13:30.433Z,57.65
2022-08-17T08:16:12.560Z,56.42
2022-08-17T08:18:55.770Z,57.22
2022-08-17T08:21:42.234Z,57.25
2022-08-17T08:24:30.880Z,55.15
2022-08-17T08:27:12.913Z,57.15
2022-08-17T08:29:45.114Z,50.38
2022-08-17T08:32:18.499Z,49.72
2022-08-17T08:35:07.089Z,56.90
2022-08-17T08:37:38.004Z,48.97
2022-08-17T08:40:27.835Z,50.55
2022-08-17T08:43:10.243Z,54.97
2022-08-17T08:45:44.025Z,51.60
2022-08-17T08:48:46.056Z,52.00
2022-08-17T08:51:28.048Z,49.78
2022-08-17T08:53:55.293Z,51.55
2022-08-17T08:56:31.886Z,54.22
2022-08-17T08:59:15.891Z,52.50
2022-08-17T09:01:46.123Z,56.63
2022-08-17T09:04:24.174Z,52.55
2022-08-17T09:07:08.120Z,51.42
2022-08-17T09:09:39.494Z,52.95
2022-08-17T09:12:25.020Z,51.92
2022-08-17T09:14:56.889Z,53.78
2022-08-17T09:17:32.683Z,54.03
2022-08-17T09:20:11.908Z,59.88
2022-08-17T09:23:07.206Z,60.20
2022-08-17T09:25:39.641Z,54.08
2022-08-17T09:28:13.424Z,48.38
2022-08-17T09:31:03.691Z,54.45
2022-08-17T09:33:33.849Z,52.05
2022-08-17T09:36:03.514Z,50.13
2022-08-17T09:38:38.162Z,52.38
2022-08-17T09:41:13.827Z,54.38
2022-08-17T09:43:52.354Z,44.92
2022-08-17T09:46:29.555Z,47.45
2022-08-17T09:48:56.533Z,43.45
2022-08-17T09:51:35.426Z,47.22
2022-08-17T09:54:34.776Z,47.70
2022-08-17T09:57:25.930Z,45.25
2022-08-17T10:00:32.545Z,44.20
2022-08-17T10:03:19.890Z,45.58
2022-08-17T10:05:56.308Z,41.10
2022-08-17T10:08:27.810Z,37.80
2022-08-17T10:11:00.008Z,41.72
2022-08-17T10:13:41.797Z,36.53
2022-08-17T10:16:23.390Z,35.03
2022-08-17T10:18:53.420Z,46.03
2022-08-17T10:21:40.736Z,49.58
2022-08-17T10:25:21.068Z,43.78
2022-08-17T10:27:38.197Z,45.65
2022-08-17T10:30:05.678Z,46.95
2022-08-17T10:32:35.244Z,42.58
2022-08-17T10:35:17.382Z,47.00
2022-08-17T10:37:50.712Z,42.40
2022-08-17T10:40:36.628Z,41.22
2022-08-17T10:43:03.524Z,44.03
2022-08-17T10:45:49.013Z,41.97
2022-08-17T10:48:37.252Z,40.80
2022-08-17T10:51:06.172Z,40.80
2022-08-17T10:53:33.087Z,38.45
2022-08-17T10:56:21.961Z,37.95
2022-08-17T10:58:50.890Z,34.55
2022-08-17T11:01:18.110Z,34.83
2022-08-17T11:03:52.460Z,36.50
2022-08-17T11:06:42.008Z,35.38
2022-08-17T11:09:27.893Z,27.77
2022-08-17T11:12:07.350Z,23.83
2022-08-17T11:14:35.016Z,26.95
2022-08-17T11:17:14.664Z,26.20
2022-08-17T11:19:41.625Z,24.38
2022-08-17T11:22:33.360Z,25.92
2022-08-17T11:25:20.401Z,24.25
2022-08-17T11:27:53.903Z,22.05
2022-08-17T11:30:41.155Z,23.58
2022-08-17T11:35:47.263Z,19.98
2022-08-17T11:38:20.028Z,22.48
2022-08-17T11:41:05.714Z,18.75
2022-08-17T11:43:49.099Z,19.23
2022-08-17T11:49:01.366Z,17.17
2022-08-17T11:51:47.260Z,18.67
2022-08-17T11:54:34.438Z,14.35
2022-08-17T11:57:21.732Z,14.40
2022-08-17T11:59:48.614Z,16.92
2022-08-17T12:02:35.187Z,16.30
2022-08-17T12:05:12.428Z,14.05
2022-08-17T12:07:43.115Z,15.18
2022-08-17T12:10:12.332Z,14.88
2022-08-17T12:12:43.660Z,14.77
2022-08-17T12:15:21.290Z,14.20
2022-08-17T12:17:53.336Z,17.55
2022-08-17T12:20:39.641Z,17.15
2022-08-17T12:23:30.805Z,16.45
2022-08-17T12:26:06.619Z,17.65
2022-08-17T12:29:02.759Z,15.95
2022-08-17T12:31:35.404Z,16.10
2022-08-17T12:34:03.688Z,14.07
2022-08-17T12:36:30.877Z,16.77
2022-08-17T12:39:13.899Z,12.20
2022-08-17T12:41:44.595Z,13.55
2022-08-17T12:44:12.559Z,14.52
2022-08-17T12:47:07.854Z,12.38
2022-08-17T12:49:37.002Z,16.65
2022-08-17T12:52:14.017Z,12.65
2022-08-17T12:54:45.605Z,13.95
2022-08-17T12:57:14.967Z,13.93
2022-08-17T12:59:53.695Z,11.15
2022-08-17T13:02:53.446Z,12.48
2022-08-17T13:05:22.926Z,12.32
2022-08-17T13:07:50.891Z,13.60
2022-08-17T13:10:24.814Z,11.32
2022-08-17T13:12:53.734Z,13.68
2022-08-17T13:15:44.439Z,12.07
2022-08-17T13:18:30.338Z,12.75
2022-08-17T13:21:01.387Z,12.90
2022-08-17T13:23:29.564Z,12.82
2022-08-17T13:28:35.600Z,13.10
2022-08-17T13:33:44.532Z,11.95
2022-08-17T13:36:12.619Z,8.73
2022-08-17T13:38:49.833Z,11.63
2022-08-17T13:41:29.921Z,10.73
2022-08-17T13:43:56.884Z,9.90
2022-08-17T13:46:27.174Z,9.48
2022-08-17T13:49:14.149Z,9.50
2022-08-17T13:51:45.161Z,9.43
2022-08-17T13:54:24.512Z,8.40
2022-08-17T13:57:00.284Z,14.38
2022-08-17T13:59:53.170Z,17.35
2022-08-17T14:02:17.366Z,17.55
2022-08-17T14:04:45.568Z,15.80
2022-08-17T14:07:12.928Z,15.13
2022-08-17T14:09:46.083Z,17.40
2022-08-17T14:12:20.643Z,14.20
2022-08-17T14:14:50.057Z,17.67
2022-08-17T14:17:19.722Z,20.02
2022-08-17T14:19:46.666Z,18.90
2022-08-17T14:22:20.445Z,16.50
2022-08-17T14:24:47.598Z,16.65
2022-08-17T14:27:18.498Z,14.05
2022-08-17T14:29:45.600Z,18.83
2022-08-17T14:32:21.085Z,19.50
2022-08-17T14:34:49.698Z,18.48
2022-08-17T14:37:17.941Z,17.67
2022-08-17T14:39:47.205Z,18.88
2022-08-17T14:42:15.185Z,18.40
2022-08-17T14:44:42.106Z,11.43
2022-08-17T14:47:15.112Z,8.43
2022-08-17T14:49:42.382Z,13.32
2022-08-17T14:52:11.902Z,10.15
2022-08-17T14:54:42.499Z,9.45
2022-08-17T14:57:24.909Z,15.52
2022-08-17T15:00:01.066Z,12.90
2022-08-17T15:02:29.624Z,11.18
2022-08-17T15:05:04.835Z,10.23
2022-08-17T15:07:31.924Z,9.90
2022-08-17T15:10:00.420Z,10.40
2022-08-17T15:12:32.432Z,9.10
2022-08-17T15:15:00.852Z,9.70
2022-08-17T15:17:44.617Z,7.07
2022-08-17T15:20:20.063Z,6.80
2022-08-17T15:22:49.987Z,8.68
2022-08-17T15:25:18.037Z,5.82
2022-08-17T15:27:47.079Z,6.57
2022-08-17T15:30:17.530Z,5.10
2022-08-17T15:32:46.629Z,6.38
2022-08-17T15:35:18.949Z,8.75
2022-08-17T15:37:56.305Z,6.43
2022-08-17T15:40:23.278Z,7.53
2022-08-17T15:42:51.617Z,7.68
2022-08-17T15:45:22.979Z,6.40
2022-08-17T15:47:50.172Z,6.93
2022-08-17T15:50:17.182Z,7.70
2022-08-17T15:52:45.146Z,8.77
2022-08-17T15:55:14.402Z,8.32
2022-08-17T15:57:41.403Z,6.50
2022-08-17T16:00:09.763Z,7.82
2022-08-17T16:03:45.219Z,7.07
2022-08-17T16:05:25.303Z,7.78
2022-08-17T16:07:53.450Z,8.43
2022-08-17T16:10:21.199Z,12.02
2022-08-17T16:12:48.983Z,9.95
2022-08-17T16:15:17.009Z,8.80
2022-08-17T16:17:44.290Z,11.77
2022-08-17T16:20:20.118Z,12.25
2022-08-17T16:22:48.747Z,11.85
2022-08-17T16:25:38.362Z,11.82
2022-08-17T16:28:16.541Z,13.80
2022-08-17T16:30:43.840Z,14.90
2022-08-17T16:33:13.003Z,14.18
2022-08-17T16:35:46.786Z,13.82
2022-08-17T16:38:14.420Z,15.40
2022-08-17T16:40:42.456Z,14.05
2022-08-17T16:43:12.293Z,14.68
2022-08-17T16:45:40.807Z,14.38
2022-08-17T16:48:10.928Z,14.82
2022-08-17T16:50:37.926Z,15.75
2022-08-17T16:53:16.355Z,15.20
2022-08-17T16:55:48.185Z,15.95
2022-08-17T16:58:18.733Z,14.15
2022-08-17T17:00:50.986Z,13.25
2022-08-17T17:03:22.284Z,12.73
2022-08-17T17:06:07.636Z,11.23
2022-08-17T17:08:44.064Z,10.52
2022-08-17T17:11:15.213Z,10.45
2022-08-17T17:13:58.609Z,10.02
2022-08-17T17:16:31.749Z,9.63
2022-08-17T17:19:08.364Z,10.27
2022-08-17T17:21:44.302Z,10.85
2022-08-17T17:24:16.984Z,12.63
2022-08-17T17:29:49.222Z,10.05
2022-08-17T17:32:21.345Z,9.75
2022-08-17T17:34:55.324Z,11.90
2022-08-17T17:37:28.848Z,10.10
2022-08-17T17:39:59.746Z,8.55
2022-08-17T17:42:40.720Z,8.88
2022-08-17T17:45:16.459Z,8.10
2022-08-17T17:47:44.416Z,7.93
2022-08-17T17:50:11.409Z,7.75
2022-08-17T17:52:47.715Z,7.70
2022-08-17T17:55:34.067Z,8.25
2022-08-17T17:58:06.452Z,8.05
2022-08-17T18:00:48.490Z,6.47
2022-08-17T18:03:34.067Z,9.60
2022-08-17T18:06:03.689Z,9.18
2022-08-17T18:08:44.445Z,7.93
2022-08-17T18:11:12.718Z,10.27
2022-08-17T18:13:44.425Z,7.70
2022-08-17T18:16:14.801Z,7.63
2022-08-17T18:18:52.415Z,6.88
2022-08-17T18:21:24.067Z,8.88
2022-08-17T18:23:52.455Z,8.85
2022-08-17T18:26:43.804Z,7.85
2022-08-17T18:29:23.909Z,7.38
2022-08-17T18:32:09.545Z,8.68
2022-08-17T18:34:47.193Z,8.80
2022-08-17T18:37:29.419Z,7.70
2022-08-17T18:39:56.353Z,8.73
2022-08-17T18:42:26.151Z,9.73
2022-08-17T18:44:55.260Z,10.75
2022-08-17T18:47:22.563Z,7.70
2022-08-17T18:49:53.813Z,8.15
2022-08-17T18:52:31.277Z,7.95
2022-08-17T18:55:09.507Z,9.52
2022-08-17T18:57:39.488Z,8.68
2022-08-17T19:00:12.860Z,8.48
2022-08-17T19:02:59.373Z,8.60
2022-08-17T19:05:38.284Z,9.02
2022-08-17T19:08:18.715Z,8.88
2022-08-17T19:10:48.808Z,8.95
2022-08-17T19:13:23.882Z,10.32
2022-08-17T19:16:12.119Z,7.15
2022-08-17T19:18:48.344Z,7.28
2022-08-17T19:21:20.278Z,7.88
2022-08-17T19:23:56.183Z,9.50
2022-08-17T19:26:53.498Z,7.30
2022-08-17T19:29:22.294Z,8.15
2022-08-17T19:31:50.160Z,11.30
2022-08-17T19:34:33.058Z,8.88
2022-08-17T19:39:38.337Z,9.07
2022-08-17T19:42:13.430Z,7.55
2022-08-17T19:44:45.223Z,9.10
2022-08-17T19:47:51.505Z,10.07
2022-08-17T19:50:22.201Z,10.40
2022-08-17T19:52:51.818Z,8.90
2022-08-17T19:55:21.768Z,8.35
2022-08-17T19:58:10.381Z,9.68
2022-08-17T20:00:47.577Z,9.45
2022-08-17T20:03:18.797Z,10.73
2022-08-17T20:06:11.338Z,10.15
2022-08-17T20:08:40.106Z,10.77
2022-08-17T20:11:15.346Z,10.80
2022-08-17T20:13:42.900Z,8.77
2022-08-17T20:16:14.011Z,11.93
2022-08-17T20:21:20.180Z,8.82
2022-08-17T20:24:03.380Z,11.02
2022-08-17T20:26:36.903Z,11.93
2022-08-17T20:29:05.280Z,12.10
2022-08-17T20:31:43.882Z,10.27
2022-08-17T20:34:33.448Z,13.05
2022-08-17T20:37:25.314Z,11.38
2022-08-17T20:39:52.853Z,17.58
2022-08-17T20:42:20.151Z,9.50
2022-08-17T20:44:52.256Z,9.80
2022-08-17T20:47:55.385Z,12.20
2022-08-17T20:50:31.291Z,13.98
2022-08-17T20:53:10.091Z,17.58
2022-08-17T20:55:51.862Z,11.60
2022-08-17T20:58:30.955Z,12.25
2022-08-17T21:01:04.248Z,9.32
2022-08-17T21:03:49.183Z,12.18
2022-08-17T21:06:22.987Z,10.38
2022-08-17T21:08:55.138Z,12.20
2022-08-17T21:12:02.612Z,13.27
2022-08-17T21:14:31.373Z,12.05
2022-08-17T21:17:12.720Z,11.25
2022-08-17T21:20:10.403Z,11.43
2022-08-17T21:22:50.263Z,14.23
2022-08-17T21:25:32.739Z,8.80
2022-08-17T21:28:10.743Z,15.38
2022-08-17T21:30:44.580Z,11.38
2022-08-17T21:33:34.494Z,9.20
2022-08-17T21:36:16.443Z,9.65
2022-08-17T21:38:44.472Z,12.60
2022-08-17T21:41:28.699Z,12.27
2022-08-17T21:44:08.508Z,11.18
2022-08-17T21:46:46.703Z,11.27
2022-08-17T21:49:16.678Z,11.88
2022-08-17T21:51:54.323Z,10.50
2022-08-17T21:54:26.090Z,12.18
2022-08-17T21:56:53.573Z,8.68
2022-08-17T21:59:38.915Z,10.98
2022-08-17T22:02:10.398Z,7.90
2022-08-17T22:04:41.767Z,9.20
2022-08-17T22:09:42.521Z,11.32
2022-08-17T22:12:16.075Z,10.07
2022-08-17T22:14:52.960Z,12.63
2022-08-17T22:17:20.809Z,8.10
2022-08-17T22:20:01.963Z,14.95
2022-08-17T22:23:04.336Z,10.65
2022-08-17T22:28:06.483Z,11.18
2022-08-17T22:30:40.750Z,9.55
2022-08-17T22:33:26.568Z,13.93
2022-08-17T22:36:11.177Z,9.15
2022-08-17T22:38:41.777Z,8.40
2022-08-17T22:41:37.415Z,13.93
2022-08-17T22:44:14.432Z,10.13
2022-08-17T22:46:48.642Z,10.43
2022-08-17T22:49:21.270Z,11.75
2022-08-17T22:51:48.952Z,11.90
2022-08-17T22:54:38.818Z,9.65
2022-08-17T22:59:54.555Z,12.35
2022-08-17T23:02:23.421Z,10.88
2022-08-17T23:04:56.124Z,9.43
2022-08-17T23:07:26.804Z,13.07
2022-08-17T23:09:59.137Z,11.07
2022-08-17T23:12:31.116Z,9.35
2022-08-17T23:15:04.416Z,9.80
2022-08-17T23:17:38.676Z,9.48
2022-08-17T23:20:08.586Z,10.88
2022-08-17T23:22:37.542Z,12.55
2022-08-17T23:25:27.200Z,9.23
2022-08-17T23:27:57.150Z,13.38
2022-08-17T23:30:25.974Z,11.02
2022-08-17T23:32:54.466Z,10.80
2022-08-17T23:35:38.976Z,12.80
2022-08-17T23:38:11.653Z,13.45
2022-08-17T23:40:39.950Z,10.02
2022-08-17T23:43:23.693Z,7.68
2022-08-17T23:45:55.353Z,11.88
2022-08-17T23:48:35.416Z,12.32
2022-08-17T23:51:18.854Z,15.10
2022-08-17T23:53:50.452Z,11.55
2022-08-17T23:56:23.818Z,13.45
